地図

経路データ

SID SEASON NUMBER BASIN SUBBASIN NAME ISO_TIME NATURE LAT LON WMO_WIND WMO_PRES WMO_AGENCY TRACK_TYPE DIST2LAND LANDFALL IFLAG USA_AGENCY USA_ATCF_ID USA_LAT USA_LON USA_RECORD USA_STATUS USA_WIND USA_PRES USA_SSHS USA_R34_NE USA_R34_SE USA_R34_SW USA_R34_NW USA_R50_NE USA_R50_SE USA_R50_SW USA_R50_NW USA_R64_NE USA_R64_SE USA_R64_SW USA_R64_NW USA_POCI USA_ROCI USA_RMW USA_EYE TOKYO_LAT TOKYO_LON TOKYO_GRADE TOKYO_WIND TOKYO_PRES TOKYO_R50_DIR TOKYO_R50_LONG TOKYO_R50_SHORT TOKYO_R30_DIR TOKYO_R30_LONG TOKYO_R30_SHORT TOKYO_LAND CMA_LAT CMA_LON CMA_CAT CMA_WIND CMA_PRES HKO_LAT HKO_LON HKO_CAT HKO_WIND HKO_PRES NEWDELHI_LAT NEWDELHI_LON NEWDELHI_GRADE NEWDELHI_WIND NEWDELHI_PRES NEWDELHI_CI NEWDELHI_DP NEWDELHI_POCI REUNION_LAT REUNION_LON REUNION_TYPE REUNION_WIND REUNION_PRES REUNION_TNUM REUNION_CI REUNION_RMW REUNION_R34_NE REUNION_R34_SE REUNION_R34_SW REUNION_R34_NW REUNION_R50_NE REUNION_R50_SE REUNION_R50_SW REUNION_R50_NW REUNION_R64_NE REUNION_R64_SE REUNION_R64_SW REUNION_R64_NW BOM_LAT BOM_LON BOM_TYPE BOM_WIND BOM_PRES BOM_TNUM BOM_CI BOM_RMW BOM_R34_NE BOM_R34_SE BOM_R34_SW BOM_R34_NW BOM_R50_NE BOM_R50_SE BOM_R50_SW BOM_R50_NW BOM_R64_NE BOM_R64_SE BOM_R64_SW BOM_R64_NW BOM_ROCI BOM_POCI BOM_EYE BOM_POS_METHOD BOM_PRES_METHOD NADI_LAT NADI_LON NADI_CAT NADI_WIND NADI_PRES WELLINGTON_LAT WELLINGTON_LON WELLINGTON_WIND WELLINGTON_PRES DS824_LAT DS824_LON DS824_STAGE DS824_WIND DS824_PRES TD9636_LAT TD9636_LON TD9636_STAGE TD9636_WIND TD9636_PRES TD9635_LAT TD9635_LON TD9635_WIND TD9635_PRES TD9635_ROCI NEUMANN_LAT NEUMANN_LON NEUMANN_CLASS NEUMANN_WIND NEUMANN_PRES MLC_LAT MLC_LON MLC_CLASS MLC_WIND MLC_PRES USA_GUST BOM_GUST BOM_GUST_PER REUNION_GUST REUNION_GUST_PER USA_SEAHGT USA_SEARAD_NE USA_SEARAD_SE USA_SEARAD_SW USA_SEARAD_NW STORM_SPEED STORM_DIR
1916289N10088 1916 60 NI BB NOT_NAMED 1916-10-15 00:00:00 TS 9.60000 87.9000 main 707 666 _________O____ -1 9.60000 87.9000 TC 30 8 274
1916289N10088 1916 60 NI BB NOT_NAMED 1916-10-15 03:00:00 TS 9.63017 87.4967 main 666 618 _________PO___ -1 9.64525 87.2951 TC 30 9.60000 87.9000 1 9 275
1916289N10088 1916 60 NI BB NOT_NAMED 1916-10-15 06:00:00 TS 9.67899 86.9475 main 608 558 _________OP___ -1 9.70000 86.7000 TC 30 9.64748 87.3187 1 11 276
1916289N10088 1916 60 NI BB NOT_NAMED 1916-10-15 09:00:00 TS 9.74658 86.3784 main 558 503 _________PP___ -1 9.77731 86.1149 TC 30 9.70561 86.7299 1 11 278
1916289N10088 1916 60 NI BB NOT_NAMED 1916-10-15 12:00:00 TS 9.84297 85.8131 main 503 454 _________OP___ -1 9.90000 85.5000 TC 30 9.78595 86.1262 1 12 282
1916289N10088 1916 60 NI BB NOT_NAMED 1916-10-15 15:00:00 TS 9.99249 85.1538 main 454 395 _________PO___ -1 10.0850 84.8075 TC 30 9.90000 85.5000 1 14 284
1916289N10088 1916 60 NI BB NOT_NAMED 1916-10-15 18:00:00 TS 10.1779 84.4733 main 395 343 _________OP___ -1 10.3000 84.1000 TC 30 10.0557 84.8465 1 14 286
1916289N10088 1916 60 NI BB NOT_NAMED 1916-10-15 21:00:00 TS 10.3698 83.8074 main 343 300 _________PP___ -1 10.4923 83.4424 TC 30 10.2472 84.1724 1 14 287
1916289N10088 1916 60 NI BB NOT_NAMED 1916-10-16 00:00:00 TS 10.5825 83.1435 main 291 250 _________OP___ -1 10.7000 82.8000 TC 30 10.4651 83.4870 1 14 289
1916289N10088 1916 60 NI BB NOT_NAMED 1916-10-16 03:00:00 TS 10.8212 82.4787 main 250 218 _________PO___ -1 10.9423 82.1574 TC 30 10.7000 82.8000 1 14 291
1916289N10088 1916 60 NI BB NOT_NAMED 1916-10-16 06:00:00 TS 11.0717 81.8125 main 207 142 _________OP___ -1 11.2000 81.5000 TC 30 10.9433 82.1250 1 14 291
1916289N10088 1916 60 NI BB NOT_NAMED 1916-10-16 09:00:00 TS 11.3284 81.1250 main 131 76 _________PP___ -1 11.4574 80.8000 TC 30 11.1994 81.4500 1 14 291
1916289N10088 1916 60 NI BB NOT_NAMED 1916-10-16 12:00:00 TS 11.5779 80.4375 main 65 0 _________OP___ -1 11.7000 80.1000 TC 30 11.4558 80.7749 1 14 290
1916289N10088 1916 60 NI BB NOT_NAMED 1916-10-16 15:00:00 TS 11.8036 79.7749 main 0 0 _________PO___ -1 11.9072 79.4498 TC 30 11.7000 80.1000 1 14 288
1916289N10088 1916 60 NI BB NOT_NAMED 1916-10-16 18:00:00 TS 12.0071 79.1042 main 0 0 _________OP___ -1 12.1000 78.8000 TC 30 11.9141 79.4085 1 14 287
1916289N10088 1916 60 NI BB NOT_NAMED 1916-10-16 21:00:00 TS 12.2074 78.4023 main 0 0 _________PP___ -1 12.3000 78.0850 TC 30 12.1148 78.7196 1 14 286
1916289N10088 1916 60 NI AS NOT_NAMED 1916-10-17 00:00:00 TS 12.4040 77.7230 main 0 0 _________OP___ -1 12.5000 77.4000 TC 30 12.3080 78.0460 1 13 287
1916289N10088 1916 60 NI AS NOT_NAMED 1916-10-17 03:00:00 TS 12.5998 77.1174 main 0 0 _________PO___ -1 12.6997 76.8349 TC 30 12.5000 77.4000 1 12 289
1916289N10088 1916 60 NI AS NOT_NAMED 1916-10-17 06:00:00 TS 12.8057 76.5481 main 0 0 _________OP___ -1 12.9000 76.3000 TC 30 12.7115 76.7961 1 12 290
1916289N10088 1916 60 NI AS NOT_NAMED 1916-10-17 09:00:00 TS 13.0145 75.9599 main 0 0 _________PP___ -1 13.1075 75.7000 TC 30 12.9216 76.2199 1 12 290
1916289N10088 1916 60 NI AS NOT_NAMED 1916-10-17 12:00:00 TS 13.2105 75.3793 main 0 0 _________OP___ -1 13.3000 75.1000 TC 30 13.1209 75.6587 1 12 288
1916289N10088 1916 60 NI AS NOT_NAMED 1916-10-17 15:00:00 TS 13.3824 74.8250 main 0 0 _________PO___ -1 13.4648 74.5499 TC 30 13.3000 75.1000 1 12 286
1916289N10088 1916 60 NI AS NOT_NAMED 1916-10-17 18:00:00 TS 13.5294 74.2442 main 54 54 _________OP___ -1 13.6000 74.0000 TC 30 13.4589 74.4884 1 12 283
1916289N10088 1916 60 NI AS NOT_NAMED 1916-10-17 21:00:00 TS 13.6552 73.6263 main 107 107 _________PP___ -1 13.7151 73.3700 TC 30 13.5953 73.8825 1 12 281
1916289N10088 1916 60 NI AS NOT_NAMED 1916-10-18 00:00:00 TS 13.7545 73.0552 main 151 151 _________OP___ -1 13.8000 72.8000 TC 30 13.7090 73.3103 1 10 280
1916289N10088 1916 60 NI AS NOT_NAMED 1916-10-18 03:00:00 TS 13.8286 72.6062 main 196 196 _________PO___ -1 13.8572 72.4124 TC 30 13.8000 72.8000 1 8 280
1916289N10088 1916 60 NI AS NOT_NAMED 1916-10-18 06:00:00 TS 13.8895 72.2405 main 227 227 _________OP___ -1 13.9000 72.1000 TC 30 13.8790 72.3810 1 7 280
1916289N10088 1916 60 NI AS NOT_NAMED 1916-10-18 09:00:00 TS 13.9470 71.8874 main 253 253 _________PP___ -1 13.9574 71.7500 TC 30 13.9366 72.0248 1 7 278
1916289N10088 1916 60 NI AS NOT_NAMED 1916-10-18 12:00:00 TS 13.9880 71.5531 main 276 276 _________OP___ -1 14.0000 71.4000 TC 30 13.9760 71.7061 1 6 275
1916289N10088 1916 60 NI AS NOT_NAMED 1916-10-18 15:00:00 TS 14.0037 71.2212 main 315 315 _________PO___ -1 14.0075 71.0425 TC 30 14.0000 71.4000 1 7 271
1916289N10088 1916 60 NI AS NOT_NAMED 1916-10-18 18:00:00 TS 14.0010 70.8838 main 345 345 _________OP___ -1 14.0000 70.7000 TC 30 14.0020 71.0676 1 6 269
1916289N10088 1916 60 NI AS NOT_NAMED 1916-10-18 21:00:00 TS 13.9923 70.5711 main 376 376 _________PP___ -1 13.9924 70.4000 TC 30 13.9923 70.7422 1 6 269
1916289N10088 1916 60 NI AS NOT_NAMED 1916-10-19 00:00:00 TS 13.9932 70.2603 main 406 406 _________OP___ -1 14.0000 70.1000 TC 30 13.9864 70.4207 1 6 272
1916289N10088 1916 60 NI AS NOT_NAMED 1916-10-19 03:00:00 TS 14.0175 69.9250 main 446 446 _________PO___ -1 14.0350 69.7500 TC 30 14.0000 70.1000 1 7 277
1916289N10088 1916 60 NI AS NOT_NAMED 1916-10-19 06:00:00 TS 14.0767 69.5815 main 471 471 _________OP___ -1 14.1000 69.4000 TC 30 14.0534 69.7629 1 7 283
1916289N10088 1916 60 NI AS NOT_NAMED 1916-10-19 09:00:00 TS 14.1637 69.2563 main 498 498 _________PP___ -1 14.2000 69.0850 TC 30 14.1275 69.4277 1 6 286
1916289N10088 1916 60 NI AS NOT_NAMED 1916-10-19 12:00:00 TS 14.2564 68.9518 main 522 522 _________OP___ -1 14.3000 68.8000 TC 30 14.2128 69.1035 1 6 286
1916289N10088 1916 60 NI AS NOT_NAMED 1916-10-19 15:00:00 TS 14.3250 68.6712 main 551 551 _________PO___ -1 14.3499 68.5424 TC 31 14.3000 68.8000 1 5 284
1916289N10088 1916 60 NI AS NOT_NAMED 1916-10-19 18:00:00 TS 14.3833 68.4142 main 575 575 _________OP___ -1 14.4000 68.3000 TC 32 14.3667 68.5283 1 5 286
1916289N10088 1916 60 NI AS NOT_NAMED 1916-10-19 21:00:00 TS 14.4636 68.1637 main 590 590 _________PP___ -1 14.4925 68.0500 TC 33 14.4347 68.2773 1 5 290
1916289N10088 1916 60 NI AS NOT_NAMED 1916-10-20 00:00:00 TS 14.5552 67.9188 main 616 616 _________OP___ -1 14.6000 67.8000 TC 34 14.5104 68.0377 1 5 291
1916289N10088 1916 60 NI AS NOT_NAMED 1916-10-20 03:00:00 TS 14.6462 67.6750 main 636 632 _________PO___ -1 14.6925 67.5499 TC 36 14.6000 67.8000 2 5 293
1916289N10088 1916 60 NI AS NOT_NAMED 1916-10-20 06:00:00 TS 14.7593 67.4311 main 659 659 _________OP___ -1 14.8000 67.3000 TC 39 14.7186 67.5622 2 5 299
1916289N10088 1916 60 NI AS NOT_NAMED 1916-10-20 09:00:00 TS 14.9036 67.1938 main 677 677 _________PP___ -1 14.9574 67.0650 TC 42 14.8497 67.3225 2 6 300
1916289N10088 1916 60 NI AS NOT_NAMED 1916-10-20 12:00:00 TS 15.0405 66.9358 main 705 702 _________OP___ -1 15.1000 66.8000 TC 45 14.9810 67.0716 2 6 292
1916289N10088 1916 60 NI AS NOT_NAMED 1916-10-20 15:00:00 TS 15.1288 66.6287 main 733 733 _________PO___ -1 15.1575 66.4574 TC 49 15.1000 66.8000 3 6 284
1916289N10088 1916 60 NI AS NOT_NAMED 1916-10-20 18:00:00 TS 15.1907 66.2941 main 762 762 _________OP___ -1 15.2000 66.1000 TC 54 15.1813 66.4883 3 7 282
1916289N10088 1916 60 NI AS NOT_NAMED 1916-10-20 21:00:00 TS 15.2675 65.9711 main 785 785 _________PP___ -1 15.2850 65.7850 TC 59 15.2501 66.1572 3 6 285
1916289N10088 1916 60 NI AS NOT_NAMED 1916-10-21 00:00:00 TS 15.3594 65.6613 main 795 795 _________OP___ -1 15.4000 65.5000 TC 64 15.3188 65.8226 3 6 290
1916289N10088 1916 60 NI AS NOT_NAMED 1916-10-21 03:00:00 TS 15.4750 65.3750 main 805 805 _________PO___ -1 15.5499 65.2500 TC 64 15.4000 65.5000 4 6 295
1916289N10088 1916 60 NI AS NOT_NAMED 1916-10-21 06:00:00 TS 15.6073 65.1033 main 817 815 _________OP___ -1 15.7000 65.0000 TC 64 15.5145 65.2066 4 6 295
1916289N10088 1916 60 NI AS NOT_NAMED 1916-10-21 09:00:00 TS 15.7249 64.8138 main 829 795 _________PP___ -1 15.8075 64.7000 TC 64 15.6423 64.9275 4 6 293
1916289N10088 1916 60 NI AS NOT_NAMED 1916-10-21 12:00:00 TS 15.8370 64.5299 main 795 771 _________OP___ -1 15.9000 64.4000 TC 64 15.7739 64.6597 4 6 293
1916289N10088 1916 60 NI AS NOT_NAMED 1916-10-21 15:00:00 TS 15.9500 64.2712 main 771 738 _________PO___ -1 15.9999 64.1425 TC 64 15.9000 64.4000 4 5 294
1916289N10088 1916 60 NI AS NOT_NAMED 1916-10-21 18:00:00 TS 16.0515 64.0254 main 733 714 _________OP___ -1 16.1000 63.9000 TC 64 16.0029 64.1507 4 5 293
1916289N10088 1916 60 NI AS NOT_NAMED 1916-10-21 21:00:00 TS 16.1461 63.7823 main 714 680 _________PP___ -1 16.1924 63.6574 TC 64 16.0997 63.9072 4 5 292
1916289N10088 1916 60 NI AS NOT_NAMED 1916-10-22 00:00:00 TS 16.2483 63.5300 main 680 651 _________OP___ -1 16.3000 63.4000 TC 64 16.1967 63.6601 4 6 294
1916289N10088 1916 60 NI AS NOT_NAMED 1916-10-22 03:00:00 TS 16.3750 63.2538 main 651 617 _________PO___ -1 16.4500 63.1075 TC 64 16.3000 63.4000 4 6 296
1916289N10088 1916 60 NI AS NOT_NAMED 1916-10-22 06:00:00 TS 16.5130 62.9572 main 617 584 _________OP___ -1 16.6000 62.8000 TC 64 16.4259 63.1144 4 6 294
1916289N10088 1916 60 NI AS NOT_NAMED 1916-10-22 09:00:00 TS 16.6325 62.6575 main 584 550 _________PP___ -1 16.7075 62.4999 TC 64 16.5574 62.8151 4 6 292
1916289N10088 1916 60 NI AS NOT_NAMED 1916-10-22 12:00:00 TS 16.7426 62.3541 main 550 517 _________OP___ -1 16.8000 62.2000 TC 64 16.6853 62.5082 4 6 291
1916289N10088 1916 60 NI AS NOT_NAMED 1916-10-22 15:00:00 TS 16.8537 62.0500 main 511 484 _________PO___ -1 16.9075 61.9000 TC 64 16.8000 62.2000 4 6 289
1916289N10088 1916 60 NI AS NOT_NAMED 1916-10-22 18:00:00 TS 16.9467 61.7439 main 474 441 _________OP___ -1 17.0000 61.6000 TC 64 16.8934 61.8877 4 6 285
1916289N10088 1916 60 NI AS NOT_NAMED 1916-10-22 21:00:00 TS 17.0150 61.4312 main 441 417 _________PP___ -1 17.0575 61.2850 TC 64 16.9725 61.5774 4 6 282
1916289N10088 1916 60 NI AS NOT_NAMED 1916-10-23 00:00:00 TS 17.0702 61.1392 main 408 390 _________OP___ -1 17.1000 61.0000 TC 64 17.0403 61.2784 4 5 282
1916289N10088 1916 60 NI AS NOT_NAMED 1916-10-23 03:00:00 TS 17.1250 60.8962 main 390 366 _________PO___ -1 17.1499 60.7925 TC 64 17.1000 61.0000 4 5 284
1916289N10088 1916 60 NI AS NOT_NAMED 1916-10-23 06:00:00 TS 17.1805 60.6726 main 366 340 _________OP___ -1 17.2000 60.6000 TC 64 17.1611 60.7452 4 5 284
1916289N10088 1916 60 NI AS NOT_NAMED 1916-10-23 09:00:00 TS 17.2324 60.4275 main 340 317 _________PP___ -1 17.2500 60.3425 TC 64 17.2148 60.5124 4 5 282
1916289N10088 1916 60 NI AS NOT_NAMED 1916-10-23 12:00:00 TS 17.2806 60.1992 main 317 300 _________OP___ -1 17.3000 60.1000 TC 64 17.2611 60.2984 4 4 284
1916289N10088 1916 60 NI AS NOT_NAMED 1916-10-23 15:00:00 TS 17.3287 60.0212 main 300 285 _________PO___ -1 17.3574 59.9425 TC 55 17.3000 60.1000 4 3 284
1916289N10088 1916 60 NI AS NOT_NAMED 1916-10-23 18:00:00 TS 17.3609 59.8652 main 285 268 _________OP___ -1 17.4000 59.8000 TC 47 17.3316 59.9141 4 3 279
1916289N10088 1916 60 NI AS NOT_NAMED 1916-10-23 21:00:00 TS 17.3786 59.6885 main 268 253 _________PP___ -1 17.4101 59.6150 TC 38 17.3576 59.7375 4 3 274
1916289N10088 1916 60 NI AS NOT_NAMED 1916-10-24 00:00:00 TS 17.3865 59.5115 main 253 246 _________OP___ -1 17.4000 59.4000 TC 30 17.3798 59.5672 4 3 274
1916289N10088 1916 60 NI AS NOT_NAMED 1916-10-24 03:00:00 NR 17.4000 59.4000 main 246 __________O___ -1 TC 17.4000 59.4000 1 2 277

IBTrACS Databaseについて

本データベースは、米国NOAAが公開する1842年以降の世界の熱帯低気圧のベストトラックデータアーカイブInternational Best Track Archive for Climate Stewardship (IBTrACS)を、ウェブで閲覧しやすい形式に変換したものです。

最終更新日:2021-10-21